Time;durP1;ratioP1;P1;durP2;ratioP2;P2;SDS_P1;SDS_P2;PMS_P1;PMS_P2;Temp;Humidity;BMP_temperature;BMP_pressure;BME280_temperature;BME280_humidity;BME280_pressure;Samples;Min_cycle;Max_cycle;Signal;HPM_P1;HPM_P2
2022/01/06 09:27:24;;;;;;;51.50;22.80;;;19.70;65.30;;;;;;10619234;27;20428;-63
2022/01/06 09:32:29;;;;;;;56.13;24.27;;;19.70;65.70;;;;;;10618174;27;20043;-64
2022/01/06 09:37:35;;;;;;;72.20;29.08;;;19.60;65.70;;;;;;10618095;28;20073;-64
2022/01/06 09:42:43;;;;;;;59.78;27.67;;;19.60;65.30;;;;;;10617726;28;20043;-64
2022/01/06 09:47:49;;;;;;;73.05;28.13;;;19.50;65.60;;;;;;10617763;27;20049;-65
2022/01/06 09:52:54;;;;;;;67.10;26.90;;;19.60;65.80;;;;;;10575612;28;20044;-65
2022/01/06 09:58:01;;;;;;;64.53;25.13;;;19.60;65.80;;;;;;10575321;28;20044;-65
2022/01/06 10:03:11;;;;;;;58.95;25.15;;;19.60;66.00;;;;;;10616895;28;20552;-66
2022/01/06 10:08:29;;;;;;;55.45;23.60;;;19.60;66.20;;;;;;10617510;28;20093;-65
2022/01/06 10:13:33;;;;;;;51.87;23.27;;;19.70;66.30;;;;;;10617939;28;20043;-65
2022/01/06 10:18:41;;;;;;;47.90;21.85;;;19.70;66.30;;;;;;10617467;28;20089;-65
2022/01/06 10:23:58;;;;;;;52.47;22.37;;;19.70;66.40;;;;;;10616720;28;20047;-65
2022/01/06 10:29:08;;;;;;;43.40;21.92;;;19.60;66.40;;;;;;10617194;27;20073;-65
2022/01/06 10:34:13;;;;;;;42.05;20.17;;;19.70;66.50;;;;;;10613784;28;20058;-66
2022/01/06 10:39:18;;;;;;;43.67;20.80;;;19.60;66.50;;;;;;10588218;28;20073;-64
2022/01/06 10:44:23;;;;;;;41.55;19.25;;;19.70;66.50;;;;;;10587815;28;20043;-65
2022/01/06 10:49:31;;;;;;;36.97;18.13;;;19.70;66.40;;;;;;10587150;28;20104;-65
2022/01/06 10:54:37;;;;;;;40.72;18.88;;;19.80;66.40;;;;;;10587350;28;20048;-65
2022/01/06 10:59:44;;;;;;;39.92;17.55;;;19.80;66.20;;;;;;10587136;28;20040;-65
2022/01/06 11:04:49;;;;;;;32.30;16.60;;;19.90;66.20;;;;;;10586935;28;20040;-64
2022/01/06 11:09:57;;;;;;;33.15;16.35;;;20.10;66.20;;;;;;10586704;28;20391;-65
2022/01/06 11:15:02;;;;;;;35.78;17.42;;;20.10;66.00;;;;;;10586788;28;20052;-66
2022/01/06 11:20:07;;;;;;;32.97;16.33;;;20.20;65.90;;;;;;10586909;28;20047;-66
2022/01/06 11:25:12;;;;;;;30.08;15.70;;;20.30;65.90;;;;;;10585191;28;20052;-66
2022/01/06 11:30:21;;;;;;;31.23;15.48;;;20.30;65.90;;;;;;10585732;28;20043;-66
2022/01/06 11:35:26;;;;;;;32.88;15.60;;;20.40;65.80;;;;;;10585385;28;20052;-66
2022/01/06 11:40:35;;;;;;;31.75;13.95;;;20.40;65.70;;;;;;10584988;28;20044;-66
2022/01/06 11:45:44;;;;;;;25.35;13.20;;;20.40;65.60;;;;;;10584160;28;20399;-66
2022/01/06 11:50:51;;;;;;;26.60;13.50;;;20.40;65.60;;;;;;10584024;28;20407;-66
2022/01/06 11:55:57;;;;;;;27.08;13.13;;;20.50;65.50;;;;;;10584155;28;20408;-65
2022/01/06 12:01:06;;;;;;;27.35;13.02;;;20.50;65.40;;;;;;10584610;28;20408;-65
2022/01/06 12:06:32;;;;;;;22.85;11.93;;;20.40;65.50;;;;;;10584370;28;20040;-66
2022/01/06 12:11:37;;;;;;;20.95;11.05;;;20.50;65.50;;;;;;10584200;28;20047;-64
2022/01/06 12:16:43;;;;;;;20.75;11.55;;;20.50;65.70;;;;;;10583880;28;20545;-67
2022/01/06 12:21:48;;;;;;;22.58;11.48;;;20.50;65.70;;;;;;10583195;28;20450;-65
2022/01/06 12:26:54;;;;;;;25.13;11.18;;;20.50;65.80;;;;;;10582115;28;20043;-66
2022/01/06 12:32:11;;;;;;;18.05;9.73;;;20.50;65.70;;;;;;10583419;28;20108;-65
2022/01/06 12:37:24;;;;;;;24.63;10.97;;;20.50;65.70;;;;;;10582936;28;20052;-65
2022/01/06 12:42:29;;;;;;;19.92;10.15;;;20.50;65.80;;;;;;10582878;28;20180;-67
2022/01/06 12:47:34;;;;;;;22.90;10.80;;;20.40;65.80;;;;;;10582166;28;20043;-65
2022/01/06 12:52:46;;;;;;;20.90;9.48;;;20.40;65.80;;;;;;10582337;28;20051;-64
2022/01/06 12:57:51;;;;;;;20.98;9.85;;;20.40;65.90;;;;;;10581677;28;20035;-63
2022/01/06 13:03:04;;;;;;;22.83;10.30;;;20.40;65.90;;;;;;10580727;28;20055;-63
2022/01/06 13:08:10;;;;;;;21.58;10.05;;;20.40;65.90;;;;;;10577976;28;20538;-61
2022/01/06 13:13:16;;;;;;;22.73;10.15;;;20.30;65.90;;;;;;10579041;28;20043;-61
2022/01/06 13:18:26;;;;;;;22.60;10.30;;;20.30;65.90;;;;;;10581624;28;20075;-62
2022/01/06 13:28:42;;;;;;;20.00;9.23;;;20.20;66.00;;;;;;10580941;28;20051;-63
2022/01/06 13:34:07;;;;;;;23.98;9.90;;;20.30;66.20;;;;;;10581249;28;20092;-62
2022/01/06 13:39:16;;;;;;;26.52;9.40;;;20.30;66.20;;;;;;10573228;28;20061;-66
2022/01/06 13:44:29;;;;;;;22.20;8.88;;;20.40;66.30;;;;;;10579949;28;20085;-66
2022/01/06 13:56:19;;;;;;;15.95;8.27;;;20.60;66.30;;;;;;10576934;28;20101;-65
2022/01/06 14:01:33;;;;;;;16.35;8.65;;;20.60;66.10;;;;;;10578278;28;20396;-65
2022/01/06 14:06:38;;;;;;;17.02;7.75;;;20.70;66.10;;;;;;10579654;28;20044;-63
2022/01/06 14:11:46;;;;;;;;;;;20.70;66.00;;;;;;10582726;28;20061;-64
2022/01/06 14:16:52;;;;;;;44.83;8.57;;;20.80;65.90;;;;;;10584768;28;19931;-64
2022/01/06 14:21:57;;;;;;;14.38;7.30;;;20.80;65.70;;;;;;10583993;28;20051;-64
2022/01/06 14:27:02;;;;;;;15.55;7.68;;;20.80;65.60;;;;;;10584786;28;20051;-65
2022/01/06 14:32:07;;;;;;;14.98;6.85;;;20.90;65.50;;;;;;10587443;28;20043;-65
2022/01/06 14:37:12;;;;;;;12.48;6.60;;;20.90;65.40;;;;;;10587774;28;20043;-65
2022/01/06 14:42:24;;;;;;;35.10;7.47;;;20.90;65.30;;;;;;10587290;28;20117;-64
2022/01/06 14:47:29;;;;;;;16.65;7.30;;;20.90;65.20;;;;;;10586454;28;20427;-65
2022/01/06 14:52:44;;;;;;;12.40;6.28;;;20.90;65.10;;;;;;10587181;28;20073;-65
2022/01/06 14:57:49;;;;;;;12.07;5.72;;;20.90;65.00;;;;;;10571403;28;20044;-63
2022/01/06 15:02:55;;;;;;;10.48;6.13;;;20.90;65.00;;;;;;10587388;28;20119;-65
2022/01/06 15:08:00;;;;;;;22.58;6.43;;;20.90;64.80;;;;;;10581425;27;20047;-65
2022/01/06 15:13:05;;;;;;;15.18;5.22;;;20.90;64.90;;;;;;10584067;28;20104;-66
2022/01/06 15:18:12;;;;;;;12.40;5.47;;;21.00;64.90;;;;;;10584188;28;20081;-65
2022/01/06 15:23:17;;;;;;;11.40;4.97;;;21.00;64.80;;;;;;10585784;28;20047;-65
2022/01/06 15:28:22;;;;;;;9.68;5.15;;;21.00;64.80;;;;;;10586020;28;20040;-65
2022/01/06 15:33:27;;;;;;;12.55;4.85;;;21.00;64.90;;;;;;10585935;28;20450;-64
2022/01/06 15:38:32;;;;;;;12.32;4.72;;;21.00;65.00;;;;;;10585141;28;20055;-64
2022/01/06 15:43:37;;;;;;;8.13;4.13;;;21.00;65.00;;;;;;10585353;28;20043;-64
2022/01/06 15:49:00;;;;;;;9.00;4.20;;;21.00;65.10;;;;;;10584744;28;20047;-63
2022/01/06 15:54:06;;;;;;;9.98;4.13;;;21.00;65.20;;;;;;10584080;28;20051;-64
2022/01/06 15:59:11;;;;;;;12.05;4.82;;;20.90;65.20;;;;;;10584343;28;20047;-64
2022/01/06 16:09:40;;;;;;;9.77;4.90;;;20.90;65.10;;;;;;10582146;28;20040;-63
2022/01/06 16:14:46;;;;;;;7.20;4.15;;;20.90;65.20;;;;;;10582936;28;20055;-63
2022/01/06 16:19:50;;;;;;;7.60;4.30;;;20.80;65.30;;;;;;10583278;28;20108;-64
2022/01/06 16:24:55;;;;;;;7.20;3.65;;;20.80;65.30;;;;;;10584255;28;20117;-64
2022/01/06 16:30:10;;;;;;;7.82;4.07;;;20.80;65.40;;;;;;10583117;28;20047;-64
2022/01/06 16:35:14;;;;;;;8.68;4.05;;;20.70;65.40;;;;;;10582686;28;20047;-64
2022/01/06 16:40:19;;;;;;;9.27;4.00;;;20.70;65.50;;;;;;10582544;28;20112;-64
2022/01/06 16:45:24;;;;;;;10.02;4.03;;;20.70;65.40;;;;;;10582889;28;20183;-64
2022/01/06 16:50:29;;;;;;;6.05;3.63;;;20.70;65.50;;;;;;10582187;28;20039;-64
2022/01/06 16:55:39;;;;;;;11.93;3.72;;;20.70;65.40;;;;;;10580673;28;20051;-64
2022/01/06 17:00:45;;;;;;;11.40;3.67;;;20.60;65.50;;;;;;10579728;28;20044;-64
2022/01/06 17:05:53;;;;;;;7.97;3.60;;;20.50;65.40;;;;;;10582863;28;20442;-64
2022/01/06 17:10:58;;;;;;;11.90;3.75;;;20.50;65.50;;;;;;10581662;28;20047;-64
2022/01/06 17:16:03;;;;;;;7.10;3.85;;;20.50;65.50;;;;;;10582022;28;20044;-64
2022/01/06 17:21:08;;;;;;;7.88;3.20;;;20.50;65.50;;;;;;10581922;28;20069;-64
2022/01/06 17:26:20;;;;;;;7.85;3.75;;;20.40;65.50;;;;;;10581723;28;20048;-64
2022/01/06 17:31:25;;;;;;;6.67;4.10;;;20.40;65.50;;;;;;10582155;28;20552;-64
2022/01/06 17:36:30;;;;;;;8.70;3.40;;;20.30;65.50;;;;;;10580730;28;20285;-63
2022/01/06 17:41:39;;;;;;;5.25;3.20;;;20.30;65.50;;;;;;10581044;28;20051;-63
2022/01/06 17:47:09;;;;;;;8.02;3.63;;;20.30;65.50;;;;;;10586273;28;20043;-63
2022/01/06 17:52:16;;;;;;;8.57;3.28;;;20.30;65.60;;;;;;10589511;28;20492;-63
2022/01/06 17:57:27;;;;;;;7.88;3.53;;;20.30;65.60;;;;;;10589743;28;20044;-63
2022/01/06 18:02:38;;;;;;;5.15;2.90;;;20.40;65.60;;;;;;10588994;27;20052;-63
2022/01/06 18:08:02;;;;;;;5.03;2.83;;;20.50;65.50;;;;;;10589407;28;20044;-63
2022/01/06 18:13:07;;;;;;;7.35;2.97;;;20.60;65.40;;;;;;10589190;28;20050;-64
2022/01/06 18:18:13;;;;;;;10.57;5.95;;;20.70;65.30;;;;;;10589458;28;20491;-63
2022/01/06 18:23:24;;;;;;;9.15;5.32;;;20.80;65.20;;;;;;10587313;28;20059;-63
2022/01/06 18:28:33;;;;;;;13.77;5.07;;;20.90;65.10;;;;;;10587509;28;20572;-64
2022/01/06 18:33:43;;;;;;;11.27;5.00;;;20.90;65.20;;;;;;10585934;28;20048;-64
2022/01/06 18:38:58;;;;;;;9.82;4.28;;;21.00;65.20;;;;;;10583188;28;20055;-64
2022/01/06 18:44:05;;;;;;;13.85;4.68;;;21.10;65.10;;;;;;10585943;28;20392;-63
2022/01/06 18:49:15;;;;;;;7.28;4.25;;;21.20;65.00;;;;;;10586109;28;20480;-63
2022/01/06 18:54:26;;;;;;;12.70;4.47;;;21.20;64.90;;;;;;10584761;28;20442;-63
2022/01/06 18:59:38;;;;;;;9.55;4.53;;;21.30;64.80;;;;;;10585285;28;20040;-62
2022/01/06 19:04:47;;;;;;;9.35;4.28;;;21.30;64.70;;;;;;10582418;28;20442;-62
2022/01/06 19:10:04;;;;;;;9.95;4.03;;;21.40;64.80;;;;;;10584690;28;20043;-63
2022/01/06 19:15:13;;;;;;;7.50;3.53;;;21.40;64.90;;;;;;10586079;28;20051;-63
2022/01/06 19:20:19;;;;;;;7.32;3.83;;;21.30;64.90;;;;;;10586348;28;20113;-63
2022/01/06 19:25:30;;;;;;;16.60;4.53;;;21.30;65.00;;;;;;10584079;28;20491;-64
2022/01/06 19:30:35;;;;;;;5.35;3.25;;;21.30;65.10;;;;;;10583407;28;20047;-63
2022/01/06 19:35:59;;;;;;;17.35;3.80;;;21.20;64.90;;;;;;10583887;28;20043;-63
2022/01/06 19:41:04;;;;;;;11.07;3.83;;;21.20;65.00;;;;;;10584574;28;20048;-63
2022/01/06 19:46:09;;;;;;;14.65;3.80;;;21.10;65.00;;;;;;10582051;28;20081;-64
2022/01/06 19:51:14;;;;;;;13.13;3.50;;;21.10;65.10;;;;;;10584422;28;20396;-64
2022/01/06 19:56:20;;;;;;;14.07;3.58;;;21.10;65.20;;;;;;10584465;28;20044;-63
2022/01/06 20:01:38;;;;;;;7.72;3.17;;;21.10;65.30;;;;;;10575754;27;20117;-64
2022/01/06 20:07:00;;;;;;;13.93;3.40;;;21.00;65.40;;;;;;10563956;28;20039;-65
2022/01/06 20:12:19;;;;;;;18.63;3.45;;;21.00;65.40;;;;;;10565322;28;20159;-64
2022/01/06 20:17:34;;;;;;;20.52;8.20;;;21.00;65.40;;;;;;10582889;28;20476;-64
2022/01/06 20:22:49;;;;;;;28.00;13.07;;;21.00;65.40;;;;;;10580179;27;20052;-64
2022/01/06 21:46:53;;;;;;;16.92;9.45;;;20.60;65.70;;;;;;9942841;29;20078;-63
2022/01/06 22:01:18;;;;;;;16.92;8.38;;;20.50;65.90;;;;;;10053517;29;20153;-65
2022/01/06 22:13:48;;;;;;;19.60;8.40;;;20.50;66.20;;;;;;10209387;29;20432;-65
2022/01/06 22:25:31;;;;;;;15.80;7.57;;;20.40;66.30;;;;;;10406604;28;20085;-64
2022/01/06 22:30:45;;;;;;;15.35;8.18;;;20.40;66.40;;;;;;10470311;28;20049;-65
2022/01/06 22:35:57;;;;;;;17.35;8.20;;;20.40;66.40;;;;;;10507600;28;20048;-64
2022/01/06 22:41:13;;;;;;;14.82;7.47;;;20.40;66.40;;;;;;10482031;28;20048;-65
2022/01/06 22:46:27;;;;;;;14.95;7.35;;;20.30;66.40;;;;;;10480191;28;20110;-65
2022/01/06 22:51:37;;;;;;;12.98;6.93;;;20.30;66.40;;;;;;10577302;28;20055;-65
2022/01/06 22:56:47;;;;;;;15.10;6.70;;;20.30;66.40;;;;;;10587342;28;20061;-66
2022/01/06 23:01:52;;;;;;;13.93;7.97;;;20.20;66.40;;;;;;10568445;28;20123;-64
2022/01/06 23:07:05;;;;;;;17.92;11.15;;;20.20;66.40;;;;;;10569039;28;20047;-64
2022/01/06 23:12:16;;;;;;;18.85;10.98;;;20.20;66.40;;;;;;10586913;28;20093;-65
2022/01/06 23:17:33;;;;;;;22.50;11.50;;;20.20;66.40;;;;;;10586384;28;20043;-65
2022/01/06 23:22:38;;;;;;;19.10;11.27;;;20.20;66.40;;;;;;10551994;28;20044;-64
2022/01/06 23:27:44;;;;;;;19.13;11.40;;;20.20;66.40;;;;;;10586067;28;20055;-63
2022/01/06 23:33:02;;;;;;;20.38;10.98;;;20.20;66.40;;;;;;10585854;28;20040;-65
2022/01/06 23:38:23;;;;;;;17.08;9.80;;;20.20;66.40;;;;;;10570195;28;20036;-64
2022/01/06 23:43:44;;;;;;;16.08;9.73;;;20.10;66.40;;;;;;10581788;28;20051;-64
2022/01/06 23:48:52;;;;;;;15.07;9.52;;;20.10;66.40;;;;;;10567993;28;20484;-64
2022/01/06 23:54:40;;;;;;;20.50;10.00;;;20.10;66.40;;;;;;10584591;28;20404;-65
2022/01/06 23:59:51;;;;;;;17.80;10.13;;;20.10;66.40;;;;;;10542624;28;20047;-65
